Time;durP1;ratioP1;P1;durP2;ratioP2;P2;SDS_P1;SDS_P2;PMS_P1;PMS_P2;Temp;Humidity;BMP_temperature;BMP_pressure;BME280_temperature;BME280_humidity;BME280_pressure;Samples;Min_cycle;Max_cycle;Signal;HPM_P1;HPM_P2
2022/10/12 00:01:10;;;;;;;0.20;0.20;;;9.30;99.90;;;;;;5012315;28;20497;-78
2022/10/12 00:03:36;;;;;;;0.17;0.17;;;9.40;99.90;;;;;;5017457;28;20112;-77
2022/10/12 00:06:16;;;;;;;0.10;0.10;;;9.40;99.90;;;;;;5025933;28;20063;-78
2022/10/12 00:08:42;;;;;;;0.22;0.22;;;9.40;99.90;;;;;;5028319;28;20045;-78
2022/10/12 00:11:14;;;;;;;0.43;0.43;;;9.40;99.90;;;;;;5034120;28;20050;-78
2022/10/12 00:13:39;;;;;;;0.10;0.10;;;9.40;99.90;;;;;;5016919;28;20042;-78
2022/10/12 00:16:07;;;;;;;0.10;0.10;;;9.40;99.90;;;;;;5029781;28;20045;-78
2022/10/12 00:18:34;;;;;;;0.40;0.40;;;9.40;99.90;;;;;;5023552;28;20489;-78
2022/10/12 00:21:11;;;;;;;0.10;0.10;;;9.40;99.90;;;;;;5037376;28;20057;-77
2022/10/12 00:23:38;;;;;;;0.10;0.10;;;9.30;99.90;;;;;;5016576;28;20394;-77
2022/10/12 00:26:06;;;;;;;0.63;0.55;;;9.40;99.90;;;;;;5011494;28;20057;-78
2022/10/12 00:28:33;;;;;;;0.10;0.10;;;9.30;99.90;;;;;;5013461;28;20045;-77
2022/10/12 00:31:00;;;;;;;0.00;0.00;;;9.30;99.90;;;;;;5027535;28;20553;-77
2022/10/12 00:33:27;;;;;;;1.75;1.20;;;9.30;99.90;;;;;;5028230;28;20037;-78
2022/10/12 00:35:53;;;;;;;0.10;0.10;;;9.30;99.90;;;;;;5023263;28;20049;-78
2022/10/12 00:38:20;;;;;;;0.10;0.10;;;9.30;99.90;;;;;;5030062;28;20041;-78
2022/10/12 00:40:46;;;;;;;0.15;0.15;;;9.30;99.90;;;;;;5024485;28;20121;-77
2022/10/12 00:43:33;;;;;;;0.10;0.10;;;9.30;99.90;;;;;;5031693;28;20061;-77
2022/10/12 00:46:02;;;;;;;0.10;0.10;;;9.30;99.90;;;;;;5029654;28;20041;-78
2022/10/12 00:48:28;;;;;;;0.10;0.10;;;9.20;99.90;;;;;;5027180;28;20047;-78
2022/10/12 00:50:54;;;;;;;0.25;0.25;;;9.20;99.90;;;;;;5025379;28;20049;-78
2022/10/12 00:53:25;;;;;;;0.15;0.15;;;9.20;99.90;;;;;;5025747;28;20120;-78
2022/10/12 00:55:56;;;;;;;0.10;0.10;;;9.20;99.90;;;;;;5029487;28;20057;-78
2022/10/12 00:58:23;;;;;;;0.20;0.20;;;9.20;99.90;;;;;;5011855;28;20823;-78
2022/10/12 01:00:49;;;;;;;0.10;0.10;;;9.20;99.90;;;;;;5038632;28;20049;-78
2022/10/12 01:03:19;;;;;;;0.40;0.40;;;9.20;99.90;;;;;;5021357;28;20064;-77
2022/10/12 01:05:45;;;;;;;0.10;0.10;;;9.30;99.90;;;;;;5030538;28;20683;-78
2022/10/12 01:08:10;;;;;;;0.52;0.52;;;9.30;99.90;;;;;;5014184;28;20145;-78
2022/10/12 01:10:36;;;;;;;0.10;0.10;;;9.20;99.90;;;;;;5018267;28;20077;-78
2022/10/12 01:13:02;;;;;;;0.20;0.20;;;9.20;99.90;;;;;;5014317;28;20073;-78
2022/10/12 01:15:34;;;;;;;0.00;0.00;;;9.30;99.90;;;;;;5012380;28;20085;-78
2022/10/12 01:18:18;;;;;;;0.30;0.30;;;9.20;99.90;;;;;;5023114;28;20060;-77
2022/10/12 01:21:04;;;;;;;0.75;0.75;;;9.30;99.90;;;;;;5020844;28;20049;-78
2022/10/12 01:23:45;;;;;;;0.10;0.10;;;9.30;99.90;;;;;;5021757;28;20520;-78
2022/10/12 01:26:37;;;;;;;1.70;0.38;;;9.30;99.90;;;;;;5023126;28;20065;-77
2022/10/12 01:29:41;;;;;;;0.93;0.57;;;9.40;99.90;;;;;;5027007;28;20505;-77
2022/10/12 01:32:19;;;;;;;3.05;1.40;;;9.50;99.90;;;;;;5031406;28;20053;-77
2022/10/12 01:34:56;;;;;;;0.10;0.10;;;9.30;99.90;;;;;;5026188;28;20041;-77
2022/10/12 01:37:30;;;;;;;0.10;0.10;;;9.30;99.90;;;;;;5026851;28;20056;-78
2022/10/12 01:40:01;;;;;;;0.10;0.10;;;9.30;99.90;;;;;;5025998;28;20037;-78
2022/10/12 01:42:31;;;;;;;1.33;1.23;;;9.30;99.90;;;;;;5032501;28;20102;-78
2022/10/12 01:45:12;;;;;;;0.70;0.70;;;9.30;99.90;;;;;;5027333;28;20054;-78
2022/10/12 01:47:40;;;;;;;0.10;0.10;;;9.30;99.90;;;;;;5039229;28;20072;-78
2022/10/12 01:50:09;;;;;;;0.13;0.13;;;9.30;99.90;;;;;;5022440;28;20049;-77
2022/10/12 01:52:57;;;;;;;0.25;0.25;;;9.30;99.90;;;;;;5031623;28;20049;-78
2022/10/12 01:55:37;;;;;;;0.30;0.30;;;9.20;99.90;;;;;;5028374;28;20049;-78
2022/10/12 01:58:33;;;;;;;2.83;0.95;;;9.30;99.90;;;;;;5035546;28;20042;-78
2022/10/12 02:01:25;;;;;;;0.03;0.03;;;9.30;99.90;;;;;;5022130;28;20189;-78
2022/10/12 02:03:53;;;;;;;0.88;0.45;;;9.30;99.90;;;;;;5030117;28;20052;-78
2022/10/12 02:06:21;;;;;;;0.10;0.10;;;9.30;99.90;;;;;;5012645;28;20069;-77
2022/10/12 02:09:02;;;;;;;0.28;0.28;;;9.30;99.90;;;;;;5024035;28;20077;-78
2022/10/12 02:11:29;;;;;;;1.10;0.88;;;9.30;99.90;;;;;;5025955;28;20057;-77
2022/10/12 02:14:15;;;;;;;0.10;0.10;;;9.30;99.90;;;;;;5030114;28;20116;-78
2022/10/12 02:16:53;;;;;;;0.00;0.00;;;9.20;99.90;;;;;;5035886;28;20077;-77
2022/10/12 02:19:24;;;;;;;0.08;0.08;;;9.20;99.90;;;;;;5022277;28;20448;-78
2022/10/12 02:21:52;;;;;;;0.10;0.10;;;9.20;99.90;;;;;;5035244;28;20048;-77
2022/10/12 02:24:21;;;;;;;0.20;0.20;;;9.20;99.90;;;;;;5021577;28;20052;-77
2022/10/12 02:26:49;;;;;;;0.17;0.10;;;9.20;99.90;;;;;;5018148;28;20393;-77
2022/10/12 02:29:20;;;;;;;0.10;0.10;;;9.20;99.90;;;;;;5021645;28;20061;-77
2022/10/12 02:31:59;;;;;;;0.10;0.10;;;9.20;99.90;;;;;;5026398;28;20564;-77
2022/10/12 02:34:32;;;;;;;0.03;0.03;;;9.20;99.90;;;;;;5015759;28;20057;-77
2022/10/12 02:37:30;;;;;;;1.52;0.68;;;9.20;99.90;;;;;;5039872;28;20068;-77
2022/10/12 02:40:07;;;;;;;0.10;0.10;;;9.20;99.90;;;;;;5024799;28;20077;-77
2022/10/12 02:42:37;;;;;;;0.10;0.10;;;9.20;99.90;;;;;;5018341;28;20104;-77
2022/10/12 02:45:07;;;;;;;0.10;0.10;;;9.20;99.90;;;;;;5036943;28;20053;-78
2022/10/12 02:47:34;;;;;;;0.10;0.10;;;9.20;99.90;;;;;;5028906;28;20049;-77
2022/10/12 02:50:01;;;;;;;0.10;0.10;;;9.20;99.90;;;;;;5024460;28;20112;-78
2022/10/12 02:52:28;;;;;;;0.10;0.10;;;9.20;99.90;;;;;;5025438;28;20056;-78
2022/10/12 02:54:53;;;;;;;0.22;0.22;;;9.20;99.90;;;;;;5030656;28;20469;-78
2022/10/12 02:57:19;;;;;;;0.10;0.10;;;9.20;99.90;;;;;;5028287;28;20080;-78
2022/10/12 02:59:45;;;;;;;0.00;0.00;;;9.20;99.90;;;;;;5031577;28;20038;-78
2022/10/12 03:02:11;;;;;;;0.00;0.00;;;9.20;99.90;;;;;;5013535;28;20089;-78
2022/10/12 03:04:36;;;;;;;0.03;0.03;;;9.20;99.90;;;;;;5045626;28;20049;-78
2022/10/12 03:07:03;;;;;;;0.10;0.10;;;9.20;99.90;;;;;;5026626;28;20061;-78
2022/10/12 03:09:28;;;;;;;0.20;0.20;;;9.30;99.90;;;;;;5011838;28;20138;-78
2022/10/12 03:11:54;;;;;;;0.20;0.20;;;9.30;99.90;;;;;;5021481;28;20174;-78
2022/10/12 03:14:21;;;;;;;0.00;0.00;;;9.30;99.90;;;;;;5029694;28;20071;-78
2022/10/12 03:16:47;;;;;;;4.20;0.65;;;9.30;99.90;;;;;;5027914;28;20041;-78
2022/10/12 03:19:13;;;;;;;0.10;0.10;;;9.30;99.90;;;;;;5023508;28;20052;-77
2022/10/12 03:21:38;;;;;;;0.50;0.50;;;9.30;99.90;;;;;;5011028;28;20042;-78
2022/10/12 03:24:04;;;;;;;0.10;0.10;;;9.30;99.90;;;;;;5031356;28;20037;-77
2022/10/12 03:26:30;;;;;;;0.10;0.10;;;9.40;99.90;;;;;;5043704;28;20037;-77
2022/10/12 03:28:55;;;;;;;0.10;0.10;;;9.30;99.90;;;;;;5013314;28;20135;-77
2022/10/12 03:31:21;;;;;;;0.20;0.20;;;9.40;99.90;;;;;;5021220;28;20041;-77
2022/10/12 03:33:46;;;;;;;2.17;1.08;;;9.40;99.90;;;;;;5020840;28;20038;-77
2022/10/12 03:36:12;;;;;;;0.10;0.10;;;9.40;99.90;;;;;;5022181;28;20061;-77
2022/10/12 03:38:38;;;;;;;0.00;0.00;;;9.40;99.90;;;;;;5029534;28;20034;-77
2022/10/12 03:41:03;;;;;;;0.10;0.10;;;9.40;99.90;;;;;;5026307;28;20085;-77
2022/10/12 03:43:29;;;;;;;0.30;0.30;;;9.30;99.90;;;;;;5027066;28;20030;-77
2022/10/12 03:45:54;;;;;;;0.45;0.45;;;9.30;99.90;;;;;;5022155;28;20894;-77
2022/10/12 03:48:20;;;;;;;0.50;0.50;;;9.30;99.90;;;;;;5027226;28;20042;-77
2022/10/12 03:50:50;;;;;;;0.10;0.10;;;9.30;99.90;;;;;;5018460;28;20054;-77
2022/10/12 03:53:17;;;;;;;0.30;0.30;;;9.20;99.90;;;;;;5015235;28;20050;-77
2022/10/12 03:55:43;;;;;;;0.10;0.10;;;9.20;99.90;;;;;;5036779;28;20090;-77
2022/10/12 03:58:09;;;;;;;0.10;0.10;;;9.20;99.90;;;;;;5025570;28;20217;-77
2022/10/12 04:00:34;;;;;;;0.10;0.10;;;9.20;99.90;;;;;;5022161;28;20042;-78
2022/10/12 04:03:03;;;;;;;1.38;0.47;;;9.10;99.90;;;;;;5024670;28;20104;-77
2022/10/12 04:05:30;;;;;;;0.10;0.10;;;9.10;99.90;;;;;;5029807;28;20064;-77
2022/10/12 04:07:56;;;;;;;0.57;0.57;;;9.10;99.90;;;;;;5026492;28;20501;-78
2022/10/12 04:10:21;;;;;;;0.10;0.10;;;9.10;99.90;;;;;;5038880;28;20046;-77
2022/10/12 04:12:47;;;;;;;1.17;1.08;;;9.10;99.90;;;;;;5025632;28;20045;-77
2022/10/12 04:15:13;;;;;;;0.10;0.10;;;9.10;99.90;;;;;;5026059;28;20078;-77
2022/10/12 04:17:39;;;;;;;0.10;0.10;;;9.10;99.90;;;;;;5014724;28;20043;-77
2022/10/12 04:20:05;;;;;;;0.20;0.20;;;9.10;99.90;;;;;;5034802;28;20049;-77
2022/10/12 04:22:31;;;;;;;0.25;0.25;;;9.10;99.90;;;;;;5015847;28;20053;-77
2022/10/12 04:24:57;;;;;;;0.10;0.10;;;9.00;99.90;;;;;;5032731;28;20045;-77
2022/10/12 04:27:22;;;;;;;0.13;0.13;;;9.00;99.90;;;;;;5033896;28;20405;-77
2022/10/12 04:29:48;;;;;;;0.10;0.10;;;9.00;99.90;;;;;;5026795;28;20052;-77
2022/10/12 04:32:14;;;;;;;0.50;0.50;;;9.00;99.90;;;;;;5029176;28;20482;-77
2022/10/12 04:34:39;;;;;;;0.40;0.40;;;9.00;99.90;;;;;;5018692;28;20135;-77
2022/10/12 04:37:05;;;;;;;0.25;0.25;;;8.90;99.90;;;;;;5015725;28;20040;-77
2022/10/12 04:39:30;;;;;;;0.13;0.13;;;8.90;99.90;;;;;;5033920;28;20116;-77
2022/10/12 04:41:56;;;;;;;0.22;0.22;;;8.90;99.90;;;;;;5029224;28;20037;-77
2022/10/12 04:44:21;;;;;;;0.10;0.10;;;8.90;99.90;;;;;;5017595;28;20088;-77
2022/10/12 04:46:47;;;;;;;0.10;0.10;;;8.90;99.90;;;;;;5037387;28;20484;-77
2022/10/12 04:49:13;;;;;;;0.10;0.10;;;8.90;99.90;;;;;;5018389;28;20368;-78
2022/10/12 04:51:39;;;;;;;0.30;0.30;;;8.90;99.90;;;;;;5020727;28;20044;-77
2022/10/12 04:54:04;;;;;;;0.10;0.10;;;8.90;99.90;;;;;;5028988;28;20041;-77
2022/10/12 04:56:30;;;;;;;1.10;0.55;;;8.90;99.90;;;;;;5028592;28;20045;-77
2022/10/12 04:58:55;;;;;;;0.40;0.40;;;8.90;99.90;;;;;;5017918;28;20029;-77
2022/10/12 05:01:21;;;;;;;0.25;0.25;;;8.90;99.90;;;;;;5016611;28;20485;-77
2022/10/12 05:03:46;;;;;;;0.10;0.10;;;8.80;99.90;;;;;;5023288;28;20374;-77
2022/10/12 05:06:12;;;;;;;0.10;0.10;;;8.80;99.90;;;;;;5028585;28;20107;-77
2022/10/12 05:08:37;;;;;;;0.35;0.35;;;8.80;99.90;;;;;;5031824;28;20081;-77
2022/10/12 05:11:03;;;;;;;0.10;0.10;;;8.80;99.90;;;;;;5024539;28;20080;-77
2022/10/12 05:13:29;;;;;;;0.55;0.55;;;8.80;99.90;;;;;;5042958;28;20034;-77
2022/10/12 05:15:54;;;;;;;0.20;0.20;;;8.80;99.90;;;;;;5034512;28;20401;-77
2022/10/12 05:18:20;;;;;;;0.20;0.20;;;8.80;99.90;;;;;;5024446;28;20038;-77
2022/10/12 05:20:46;;;;;;;0.10;0.10;;;8.80;99.90;;;;;;5033577;28;20040;-77
2022/10/12 05:23:11;;;;;;;0.10;0.10;;;8.80;99.90;;;;;;5041110;28;20097;-77
2022/10/12 05:25:37;;;;;;;0.10;0.10;;;8.80;99.90;;;;;;5029392;28;20080;-77
2022/10/12 05:28:03;;;;;;;0.20;0.20;;;8.90;99.90;;;;;;5041420;28;20045;-77
2022/10/12 05:30:29;;;;;;;0.10;0.10;;;8.80;99.90;;;;;;5031171;28;20049;-77
2022/10/12 05:32:54;;;;;;;4.30;1.30;;;8.90;99.90;;;;;;5029983;28;20073;-78
2022/10/12 05:35:20;;;;;;;9.07;1.35;;;8.90;99.90;;;;;;5035963;28;20045;-77
2022/10/12 05:37:45;;;;;;;1.83;1.70;;;8.90;99.90;;;;;;5024510;28;20050;-76
2022/10/12 05:40:11;;;;;;;1.17;1.08;;;8.90;99.90;;;;;;5028719;28;20127;-78
2022/10/12 05:42:37;;;;;;;0.20;0.20;;;8.90;99.90;;;;;;5028111;28;20046;-77
2022/10/12 05:45:03;;;;;;;0.30;0.30;;;8.90;99.90;;;;;;5041058;28;20037;-77
2022/10/12 05:47:29;;;;;;;1.90;0.43;;;8.80;99.90;;;;;;5027474;28;20041;-78
2022/10/12 05:49:55;;;;;;;0.63;0.63;;;8.90;99.90;;;;;;5032219;28;20037;-78
2022/10/12 05:52:21;;;;;;;0.55;0.55;;;8.80;99.90;;;;;;5032108;28;20034;-78
2022/10/12 05:54:46;;;;;;;8.93;0.98;;;8.80;99.90;;;;;;5029099;28;20480;-77
2022/10/12 05:57:14;;;;;;;0.20;0.20;;;8.70;99.90;;;;;;5041384;28;20068;-78
2022/10/12 05:59:42;;;;;;;1.15;1.02;;;8.80;99.90;;;;;;5030264;28;20195;-78
2022/10/12 06:02:12;;;;;;;0.40;0.40;;;8.80;99.90;;;;;;5027527;28;20133;-78
2022/10/12 06:04:38;;;;;;;0.50;0.50;;;8.80;99.90;;;;;;5012543;28;20523;-78
2022/10/12 06:07:04;;;;;;;0.22;0.22;;;8.70;99.90;;;;;;5034713;28;20053;-77
2022/10/12 06:09:29;;;;;;;0.35;0.35;;;8.70;99.90;;;;;;5020420;28;20045;-77
2022/10/12 06:11:55;;;;;;;2.65;1.35;;;8.70;99.90;;;;;;5022762;28;20048;-78
2022/10/12 06:14:20;;;;;;;0.20;0.20;;;8.70;99.90;;;;;;5021898;28;20042;-77
2022/10/12 06:16:46;;;;;;;0.10;0.10;;;8.70;99.90;;;;;;5045910;28;20041;-78
2022/10/12 06:19:11;;;;;;;0.10;0.10;;;8.70;99.90;;;;;;5033261;28;20053;-77
2022/10/12 06:21:38;;;;;;;0.10;0.10;;;8.60;99.90;;;;;;5047063;28;20044;-77
2022/10/12 06:24:04;;;;;;;1.55;1.30;;;8.70;99.90;;;;;;5034223;28;20099;-78
2022/10/12 06:26:30;;;;;;;0.90;0.90;;;8.70;99.90;;;;;;5053288;28;20446;-77
2022/10/12 06:28:55;;;;;;;0.10;0.10;;;8.70;99.90;;;;;;5015419;28;20217;-77
2022/10/12 06:31:21;;;;;;;0.10;0.10;;;8.70;99.90;;;;;;5032096;28;20045;-77
2022/10/12 06:33:49;;;;;;;0.55;0.55;;;8.70;99.90;;;;;;5047092;28;20044;-77
2022/10/12 06:36:14;;;;;;;1.00;0.57;;;8.70;99.90;;;;;;5038794;28;20042;-77
2022/10/12 06:38:40;;;;;;;0.40;0.40;;;8.70;99.90;;;;;;5029509;28;20444;-77
2022/10/12 06:41:05;;;;;;;0.10;0.10;;;8.70;99.90;;;;;;5038238;28;20044;-77
2022/10/12 06:43:31;;;;;;;0.10;0.10;;;8.80;99.90;;;;;;5051472;28;20477;-77
2022/10/12 06:46:00;;;;;;;0.10;0.10;;;8.70;99.90;;;;;;5052241;28;20048;-78
2022/10/12 06:48:27;;;;;;;0.10;0.10;;;8.70;99.90;;;;;;5050720;28;20045;-77
2022/10/12 06:50:53;;;;;;;0.10;0.10;;;8.70;99.90;;;;;;5052067;28;20095;-77
2022/10/12 06:53:18;;;;;;;0.45;0.45;;;8.80;99.90;;;;;;5051451;28;20068;-78
2022/10/12 06:55:44;;;;;;;0.10;0.10;;;8.80;99.90;;;;;;5048605;28;20045;-78
2022/10/12 06:58:10;;;;;;;0.52;0.52;;;8.80;99.90;;;;;;5028922;28;20045;-77
2022/10/12 07:00:36;;;;;;;0.10;0.10;;;8.80;99.90;;;;;;5024922;28;20094;-78
2022/10/12 07:03:02;;;;;;;0.20;0.17;;;8.80;99.90;;;;;;5037209;28;20090;-78
2022/10/12 07:05:28;;;;;;;0.17;0.17;;;8.80;99.90;;;;;;5026470;28;20054;-78
2022/10/12 07:07:54;;;;;;;0.13;0.13;;;8.80;99.90;;;;;;5018586;28;20056;-78
2022/10/12 07:10:19;;;;;;;0.40;0.40;;;8.90;99.90;;;;;;5022585;28;20511;-78
2022/10/12 07:12:45;;;;;;;0.10;0.10;;;8.90;99.90;;;;;;5038804;28;20361;-78
2022/10/12 07:15:11;;;;;;;0.20;0.20;;;8.90;99.90;;;;;;5049523;28;20061;-78
2022/10/12 07:17:36;;;;;;;0.25;0.25;;;8.80;99.90;;;;;;5049678;28;20045;-78
2022/10/12 07:20:02;;;;;;;1.00;0.93;;;8.90;99.90;;;;;;5021948;28;20038;-78
2022/10/12 07:22:28;;;;;;;0.10;0.10;;;8.90;99.90;;;;;;5026516;28;20057;-78
2022/10/12 07:24:53;;;;;;;0.30;0.30;;;9.00;99.90;;;;;;5022319;28;20033;-78
2022/10/12 07:27:19;;;;;;;2.25;1.38;;;9.00;99.90;;;;;;5034002;28;20136;-78
2022/10/12 07:29:45;;;;;;;0.10;0.10;;;9.00;99.90;;;;;;5023927;28;20042;-78
2022/10/12 07:32:10;;;;;;;0.40;0.40;;;9.10;99.90;;;;;;5034283;28;20041;-78
2022/10/12 07:34:36;;;;;;;0.65;0.65;;;9.20;99.90;;;;;;5023878;28;20733;-78
2022/10/12 07:37:02;;;;;;;0.10;0.10;;;9.20;99.90;;;;;;5019509;28;20102;-78
2022/10/12 07:39:28;;;;;;;0.10;0.10;;;9.30;99.90;;;;;;5021077;28;20482;-78
2022/10/12 07:41:53;;;;;;;0.20;0.20;;;9.40;99.90;;;;;;5015046;28;20053;-79
2022/10/12 07:44:19;;;;;;;0.38;0.38;;;9.50;99.90;;;;;;5009654;28;20077;-78
2022/10/12 07:46:45;;;;;;;0.10;0.10;;;9.50;99.90;;;;;;5029480;28;20053;-79
2022/10/12 07:49:12;;;;;;;0.10;0.10;;;9.60;99.90;;;;;;5015769;28;20050;-79
2022/10/12 07:51:38;;;;;;;0.10;0.10;;;9.70;99.90;;;;;;5022480;28;20041;-78
2022/10/12 07:54:04;;;;;;;0.28;0.28;;;9.70;99.90;;;;;;5048170;28;20118;-79
2022/10/12 07:56:29;;;;;;;0.10;0.10;;;9.70;99.90;;;;;;5039102;28;20041;-79
2022/10/12 07:58:56;;;;;;;0.00;0.00;;;9.80;99.90;;;;;;5028459;28;20087;-79
2022/10/12 08:01:25;;;;;;;0.20;0.20;;;9.80;99.90;;;;;;5029601;28;20052;-79
2022/10/12 08:03:51;;;;;;;0.10;0.10;;;9.80;99.90;;;;;;5026430;28;20128;-79
2022/10/12 08:06:20;;;;;;;0.30;0.30;;;9.80;99.90;;;;;;5009374;28;20482;-79
2022/10/12 08:08:46;;;;;;;0.05;0.05;;;9.80;99.90;;;;;;5046517;28;20417;-79
2022/10/12 08:11:12;;;;;;;0.10;0.10;;;9.90;99.90;;;;;;5047235;28;20485;-79
2022/10/12 08:13:38;;;;;;;0.20;0.20;;;9.90;99.90;;;;;;5047575;28;20056;-79
2022/10/12 08:16:07;;;;;;;0.20;0.20;;;9.90;99.90;;;;;;5032810;28;20041;-78
2022/10/12 08:18:32;;;;;;;0.05;0.05;;;10.00;99.90;;;;;;5048995;28;20424;-78
2022/10/12 08:20:58;;;;;;;0.13;0.13;;;10.10;99.90;;;;;;5030886;28;20124;-78
2022/10/12 08:23:23;;;;;;;0.20;0.20;;;10.10;99.90;;;;;;5048215;28;20534;-79
2022/10/12 08:25:54;;;;;;;0.00;0.00;;;10.20;99.90;;;;;;5029911;28;20110;-79
2022/10/12 08:28:19;;;;;;;0.13;0.13;;;10.30;99.90;;;;;;5040979;28;20038;-79
2022/10/12 08:30:45;;;;;;;0.85;0.63;;;10.40;99.90;;;;;;5027938;28;20046;-78
2022/10/12 08:33:12;;;;;;;0.10;0.10;;;10.50;99.90;;;;;;5023006;28;20037;-78
2022/10/12 08:35:39;;;;;;;0.10;0.10;;;10.60;99.90;;;;;;5048184;28;20071;-78
2022/10/12 08:38:05;;;;;;;0.00;0.00;;;10.60;99.90;;;;;;5044147;28;20056;-78
2022/10/12 08:40:36;;;;;;;0.10;0.10;;;10.70;99.90;;;;;;5027857;28;20055;-71
2022/10/12 08:43:28;;;;;;;0.25;0.25;;;10.70;99.90;;;;;;5028008;28;20052;-71
2022/10/12 08:45:57;;;;;;;0.57;0.57;;;10.80;99.90;;;;;;5020279;28;20370;-72
2022/10/12 08:48:48;;;;;;;0.00;0.00;;;10.80;99.90;;;;;;5027795;28;20061;-72
2022/10/12 08:51:18;;;;;;;0.10;0.10;;;10.90;99.90;;;;;;5035112;28;20053;-73
2022/10/12 08:53:56;;;;;;;0.10;0.10;;;11.00;99.90;;;;;;5026348;28;20048;-74
2022/10/12 08:56:22;;;;;;;0.10;0.10;;;11.10;99.90;;;;;;5022888;28;20117;-74
2022/10/12 08:58:49;;;;;;;0.10;0.10;;;11.20;99.90;;;;;;5009593;28;20481;-73
2022/10/12 09:01:36;;;;;;;0.10;0.10;;;11.20;99.90;;;;;;5047794;28;20400;-73
2022/10/12 09:04:32;;;;;;;0.10;0.10;;;11.30;99.90;;;;;;5047702;28;20045;-73
2022/10/12 09:07:22;;;;;;;1.55;1.38;;;11.40;99.90;;;;;;5037213;28;20870;-72
2022/10/12 09:10:09;;;;;;;0.10;0.10;;;11.40;99.90;;;;;;5048288;28;20144;-73
2022/10/12 09:12:55;;;;;;;0.20;0.20;;;11.50;99.90;;;;;;5011696;28;20061;-74
2022/10/12 09:15:27;;;;;;;0.63;0.63;;;11.60;99.90;;;;;;5013092;28;20042;-74
2022/10/12 09:17:58;;;;;;;0.17;0.17;;;11.80;99.90;;;;;;5048150;28;20103;-74
2022/10/12 09:20:29;;;;;;;0.00;0.00;;;12.60;99.90;;;;;;5039670;28;20148;-74
2022/10/12 09:23:19;;;;;;;0.20;0.20;;;13.60;99.90;;;;;;5037059;28;20134;-74
2022/10/12 09:25:46;;;;;;;0.10;0.10;;;14.30;99.90;;;;;;5027169;28;20076;-74
2022/10/12 09:28:29;;;;;;;0.10;0.10;;;15.10;99.90;;;;;;5028652;28;20393;-75
2022/10/12 09:31:17;;;;;;;0.00;0.00;;;15.70;99.90;;;;;;5027737;28;20119;-75
2022/10/12 09:34:00;;;;;;;0.15;0.15;;;16.50;99.90;;;;;;5030005;28;20057;-76
2022/10/12 09:36:29;;;;;;;0.20;0.17;;;16.60;99.90;;;;;;5021090;28;20041;-75
2022/10/12 09:38:57;;;;;;;0.00;0.00;;;16.90;99.90;;;;;;5025074;28;20300;-75
2022/10/12 09:41:30;;;;;;;0.10;0.10;;;17.10;99.90;;;;;;5021630;28;20056;-75
2022/10/12 09:44:00;;;;;;;0.47;0.47;;;17.20;99.90;;;;;;5039641;28;20051;-75
2022/10/12 09:46:41;;;;;;;0.40;0.40;;;17.20;99.90;;;;;;5032525;28;20045;-75
2022/10/12 09:49:07;;;;;;;0.17;0.17;;;16.90;99.90;;;;;;5042359;28;20095;-76
2022/10/12 09:51:32;;;;;;;0.30;0.30;;;16.90;99.90;;;;;;5015881;28;20485;-75
2022/10/12 09:54:04;;;;;;;0.20;0.20;;;16.70;99.90;;;;;;5028853;28;20069;-76
2022/10/12 09:56:43;;;;;;;0.20;0.20;;;16.50;99.90;;;;;;5013792;28;20077;-75
2022/10/12 09:59:38;;;;;;;0.10;0.10;;;16.50;99.90;;;;;;5021415;28;20053;-75
2022/10/12 10:02:14;;;;;;;1.30;0.98;;;16.50;99.90;;;;;;5048795;28;20060;-76
2022/10/12 10:04:41;;;;;;;0.30;0.30;;;16.20;99.90;;;;;;5041348;28;20045;-74
2022/10/12 10:07:20;;;;;;;0.25;0.25;;;16.10;99.90;;;;;;5039716;28;20624;-74
2022/10/12 10:09:47;;;;;;;0.00;0.00;;;15.90;99.90;;;;;;5020185;28;20049;-71
2022/10/12 10:12:22;;;;;;;0.10;0.10;;;15.70;99.90;;;;;;5021949;28;20462;-75
2022/10/12 10:14:50;;;;;;;0.10;0.10;;;15.50;99.90;;;;;;5020577;28;20038;-73
2022/10/12 10:17:23;;;;;;;0.57;0.57;;;15.30;99.90;;;;;;5026147;28;20121;-73
2022/10/12 10:19:54;;;;;;;0.00;0.00;;;15.10;99.90;;;;;;5042505;28;20102;-73
2022/10/12 10:22:20;;;;;;;0.00;0.00;;;15.00;99.90;;;;;;5034080;28;20557;-76
2022/10/12 10:24:57;;;;;;;0.90;0.90;;;14.90;99.90;;;;;;5037516;28;21716;-73
2022/10/12 10:27:39;;;;;;;3.75;0.65;;;15.00;99.90;;;;;;5014433;28;20056;-75
2022/10/12 10:30:17;;;;;;;0.10;0.10;;;15.00;99.90;;;;;;5025523;28;20045;-73
2022/10/12 10:32:44;;;;;;;0.73;0.65;;;15.00;99.90;;;;;;5028955;28;20620;-74
2022/10/12 10:35:29;;;;;;;0.10;0.10;;;15.00;99.90;;;;;;5030581;28;20044;-74
2022/10/12 10:38:16;;;;;;;0.10;0.10;;;15.10;99.90;;;;;;5031050;28;20083;-74
2022/10/12 10:41:05;;;;;;;0.10;0.10;;;15.10;99.90;;;;;;5025827;28;20107;-74
2022/10/12 10:43:49;;;;;;;0.52;0.52;;;15.10;99.90;;;;;;5015546;28;20492;-76
2022/10/12 10:46:35;;;;;;;0.15;0.15;;;15.10;99.90;;;;;;5028920;28;20165;-75
2022/10/12 10:49:07;;;;;;;2.85;0.47;;;15.20;99.90;;;;;;5043051;28;20584;-75
2022/10/12 10:51:42;;;;;;;0.88;0.88;;;15.20;99.90;;;;;;5040456;28;20486;-75
2022/10/12 10:54:29;;;;;;;0.00;0.00;;;15.30;99.90;;;;;;5040160;28;20042;-75
2022/10/12 10:57:00;;;;;;;0.20;0.20;;;15.40;99.90;;;;;;5012068;28;20049;-76
2022/10/12 10:59:38;;;;;;;0.10;0.10;;;15.50;99.90;;;;;;5039029;28;20481;-75
2022/10/12 11:02:22;;;;;;;0.57;0.40;;;15.50;99.90;;;;;;5049950;28;20504;-75
2022/10/12 11:05:24;;;;;;;0.63;0.52;;;15.60;99.90;;;;;;5038470;28;20053;-75
2022/10/12 11:07:52;;;;;;;0.25;0.25;;;15.80;99.90;;;;;;5039706;28;20061;-74
2022/10/12 11:10:32;;;;;;;17.00;1.27;;;15.80;99.90;;;;;;5032551;28;20048;-75
2022/10/12 11:13:27;;;;;;;0.20;0.20;;;15.90;99.90;;;;;;5021134;28;20425;-75
2022/10/12 11:16:02;;;;;;;0.22;0.22;;;16.20;99.90;;;;;;5024086;28;20053;-66
2022/10/12 11:18:56;;;;;;;0.30;0.30;;;16.30;99.90;;;;;;5024839;28;20103;-74
2022/10/12 11:21:31;;;;;;;0.20;0.20;;;16.60;99.90;;;;;;5038026;28;20079;-73
2022/10/12 11:24:17;;;;;;;1.63;0.90;;;16.90;99.90;;;;;;5050439;28;20396;-74
2022/10/12 11:26:52;;;;;;;0.10;0.10;;;17.30;99.90;;;;;;5050032;28;20049;-74
2022/10/12 11:29:18;;;;;;;0.10;0.10;;;17.30;99.90;;;;;;5025549;28;20046;-74
2022/10/12 11:31:59;;;;;;;2.85;1.17;;;17.50;99.90;;;;;;5029221;28;20045;-74
2022/10/12 11:34:27;;;;;;;0.20;0.20;;;17.70;99.90;;;;;;5029552;28;20053;-75
2022/10/12 11:36:54;;;;;;;0.10;0.10;;;17.90;99.90;;;;;;5036651;28;20512;-74
2022/10/12 11:39:38;;;;;;;0.10;0.10;;;18.10;99.90;;;;;;5049022;28;20100;-74
2022/10/12 11:42:06;;;;;;;0.28;0.28;;;18.50;99.90;;;;;;5011100;28;20187;-74
2022/10/12 11:44:42;;;;;;;0.20;0.10;;;18.70;99.90;;;;;;5027723;28;20602;-75
2022/10/12 11:47:37;;;;;;;0.10;0.10;;;18.80;99.90;;;;;;5029095;28;20116;-75
2022/10/12 11:50:36;;;;;;;0.68;0.68;;;18.90;99.90;;;;;;5033632;28;20563;-75
2022/10/12 11:53:06;;;;;;;0.00;0.00;;;19.00;99.90;;;;;;5048452;28;20049;-75
2022/10/12 11:55:37;;;;;;;0.57;0.57;;;19.40;99.90;;;;;;5043880;28;20573;-74
2022/10/12 11:58:24;;;;;;;4.85;0.90;;;19.60;99.90;;;;;;5047283;28;20850;-74
2022/10/12 12:00:52;;;;;;;0.45;0.45;;;19.70;99.90;;;;;;5048989;28;20072;-74
2022/10/12 12:03:29;;;;;;;0.00;0.00;;;19.80;99.90;;;;;;5048844;28;20388;-74
2022/10/12 12:05:55;;;;;;;0.00;0.00;;;19.90;98.70;;;;;;5046748;28;20060;-74
2022/10/12 12:08:39;;;;;;;1.08;0.50;;;19.80;99.80;;;;;;5048448;28;20111;-73
2022/10/12 12:11:17;;;;;;;;;;;19.90;99.20;;;;;;5029723;28;20103;-74
2022/10/12 12:13:42;;;;;;;1.13;0.57;;;20.00;99.30;;;;;;5027278;28;19933;-74
2022/10/12 12:16:10;;;;;;;0.00;0.00;;;20.10;99.10;;;;;;5027671;28;20045;-74
2022/10/12 12:19:08;;;;;;;0.00;0.00;;;20.40;99.90;;;;;;5036926;28;20087;-75
2022/10/12 12:22:12;;;;;;;0.00;0.00;;;20.40;99.10;;;;;;5048955;28;20399;-74
2022/10/12 12:24:38;;;;;;;0.03;0.03;;;20.60;98.30;;;;;;5049113;28;20138;-74
2022/10/12 12:27:26;;;;;;;0.00;0.00;;;20.50;98.60;;;;;;5047033;28;20397;-74
2022/10/12 12:29:52;;;;;;;0.00;0.00;;;20.80;99.10;;;;;;5038360;28;20042;-74
2022/10/12 12:32:19;;;;;;;0.10;0.10;;;20.90;98.30;;;;;;5028085;28;20488;-74
2022/10/12 12:34:57;;;;;;;0.10;0.10;;;20.80;99.00;;;;;;5029512;28;20452;-75
2022/10/12 12:37:33;;;;;;;0.00;0.00;;;21.00;98.90;;;;;;5046621;28;20064;-75
2022/10/12 12:39:59;;;;;;;0.00;0.00;;;21.10;98.90;;;;;;5043002;28;20041;-74
2022/10/12 12:42:33;;;;;;;0.10;0.10;;;20.90;97.30;;;;;;5027707;28;20386;-75
2022/10/12 12:45:18;;;;;;;;;;;21.10;97.50;;;;;;5032684;28;20404;-74
2022/10/12 12:47:44;;;;;;;0.30;0.30;;;20.90;97.30;;;;;;5027895;28;19928;-75
2022/10/12 12:50:34;;;;;;;0.22;0.22;;;20.80;97.40;;;;;;5033989;28;20040;-75
2022/10/12 12:53:12;;;;;;;0.30;0.30;;;20.70;98.50;;;;;;5045374;28;20049;-75
2022/10/12 12:55:42;;;;;;;0.10;0.10;;;20.70;97.90;;;;;;5048044;28;20045;-74
2022/10/12 12:58:38;;;;;;;0.00;0.00;;;20.70;98.10;;;;;;5046877;28;20052;-75
2022/10/12 13:01:25;;;;;;;0.00;0.00;;;20.90;96.40;;;;;;5020447;28;20130;-74
2022/10/12 13:04:12;;;;;;;0.47;0.30;;;20.90;96.70;;;;;;5028770;28;20042;-75
2022/10/12 13:07:22;;;;;;;0.32;0.32;;;20.70;97.60;;;;;;5022041;28;20615;-75
2022/10/12 13:10:06;;;;;;;0.10;0.10;;;21.10;97.10;;;;;;5021445;28;20383;-75
2022/10/12 13:12:44;;;;;;;0.35;0.25;;;21.20;97.60;;;;;;5026129;28;20088;-75
2022/10/12 13:15:36;;;;;;;0.00;0.00;;;20.90;97.30;;;;;;5021074;28;20146;-75